Time;durP1;ratioP1;P1;durP2;ratioP2;P2;SDS_P1;SDS_P2;PMS_P1;PMS_P2;Temp;Humidity;BMP_temperature;BMP_pressure;BME280_temperature;BME280_humidity;BME280_pressure;Samples;Min_cycle;Max_cycle;Signal;HPM_P1;HPM_P2
2023/05/01 00:00:24;;;;;;;6.47;3.97;;;4.50;99.90;;;;;;4948944;28;20421;-63
2023/05/01 00:02:53;;;;;;;2.92;2.38;;;4.50;99.90;;;;;;4949867;28;20564;-64
2023/05/01 00:05:20;;;;;;;4.15;2.45;;;4.50;99.90;;;;;;4947067;28;20063;-65
2023/05/01 00:07:47;;;;;;;2.33;2.03;;;4.50;99.90;;;;;;4946237;28;20079;-69
2023/05/01 00:10:14;;;;;;;2.95;2.33;;;4.40;99.90;;;;;;4948331;28;20047;-62
2023/05/01 00:12:41;;;;;;;3.80;2.00;;;4.40;99.90;;;;;;4946891;28;20754;-70
2023/05/01 00:15:08;;;;;;;3.97;2.47;;;4.40;99.90;;;;;;4959592;28;20082;-63
2023/05/01 00:17:35;;;;;;;3.42;1.77;;;4.30;99.90;;;;;;4946844;28;20174;-62
2023/05/01 00:20:04;;;;;;;2.75;2.05;;;4.30;99.90;;;;;;4962679;28;21226;-70
2023/05/01 00:22:31;;;;;;;3.13;2.05;;;4.30;99.90;;;;;;4953541;28;20137;-63
2023/05/01 00:24:57;;;;;;;3.53;2.17;;;4.40;99.90;;;;;;4949104;28;20047;-66
2023/05/01 00:27:24;;;;;;;3.90;2.75;;;4.30;99.90;;;;;;4950650;28;20377;-62
2023/05/01 00:29:51;;;;;;;2.72;2.50;;;4.30;99.90;;;;;;4945391;28;20066;-63
2023/05/01 00:32:18;;;;;;;2.47;1.77;;;4.40;99.90;;;;;;4943392;28;20062;-65
2023/05/01 00:34:47;;;;;;;3.45;2.28;;;4.30;99.90;;;;;;4936209;29;20474;-63
2023/05/01 00:37:14;;;;;;;5.20;1.75;;;4.40;99.90;;;;;;4948640;28;20066;-67
2023/05/01 00:39:41;;;;;;;2.92;1.90;;;4.30;99.90;;;;;;4939477;28;20055;-68
2023/05/01 00:42:07;;;;;;;4.68;2.00;;;4.30;99.90;;;;;;4939166;28;20058;-65
2023/05/01 00:44:34;;;;;;;3.13;2.20;;;4.30;99.90;;;;;;4936604;28;20062;-66
2023/05/01 00:47:03;;;;;;;2.53;1.98;;;4.30;99.90;;;;;;4935680;28;20055;-63
2023/05/01 00:49:30;;;;;;;3.78;2.00;;;4.30;99.90;;;;;;4947265;28;20090;-68
2023/05/01 00:51:57;;;;;;;4.18;2.40;;;4.30;99.90;;;;;;4942423;28;20083;-63
2023/05/01 00:54:26;;;;;;;3.17;1.90;;;4.30;99.90;;;;;;4962804;28;20063;-65
2023/05/01 00:56:53;;;;;;;2.58;1.90;;;4.30;99.90;;;;;;4945577;28;20532;-63
2023/05/01 00:59:21;;;;;;;2.40;1.38;;;4.40;99.90;;;;;;4963138;28;20083;-70
2023/05/01 01:01:49;;;;;;;3.45;2.42;;;4.50;99.90;;;;;;4947055;28;20051;-63
2023/05/01 01:04:16;;;;;;;1.88;1.77;;;4.50;99.90;;;;;;4947360;28;20490;-67
2023/05/01 01:07:23;;;;;;;3.90;2.10;;;4.60;99.90;;;;;;4951682;28;20633;-63
2023/05/01 01:10:13;;;;;;;1.48;1.38;;;4.60;99.90;;;;;;4943464;28;20154;-63
2023/05/01 01:13:03;;;;;;;2.22;2.00;;;4.70;99.90;;;;;;4951605;28;20525;-63
2023/05/01 01:15:37;;;;;;;2.75;2.03;;;4.70;99.90;;;;;;4957378;28;20063;-64
2023/05/01 01:18:32;;;;;;;5.05;2.00;;;4.60;99.90;;;;;;4954338;28;20091;-63
2023/05/01 01:21:23;;;;;;;2.97;1.70;;;4.60;99.90;;;;;;4961561;28;20090;-67
2023/05/01 01:24:17;;;;;;;2.72;1.90;;;4.60;99.90;;;;;;4949532;28;20062;-64
2023/05/01 01:27:33;;;;;;;2.70;1.88;;;4.60;99.90;;;;;;4949416;28;20560;-64
2023/05/01 01:30:03;;;;;;;4.72;2.50;;;4.60;99.90;;;;;;4900463;29;20080;-66
2023/05/01 01:32:32;;;;;;;1.92;1.60;;;4.50;99.90;;;;;;4933448;28;20051;-73
2023/05/01 01:35:06;;;;;;;3.77;2.47;;;4.50;99.90;;;;;;4936662;28;20062;-63
2023/05/01 01:37:51;;;;;;;3.08;1.77;;;4.40;99.90;;;;;;4960275;28;20356;-63
2023/05/01 01:40:32;;;;;;;2.40;1.58;;;4.40;99.90;;;;;;4952418;28;20055;-63
2023/05/01 01:43:07;;;;;;;3.28;2.97;;;4.40;99.90;;;;;;4947300;28;20094;-70
2023/05/01 01:45:39;;;;;;;2.17;1.85;;;4.30;99.90;;;;;;4945639;28;20114;-63
2023/05/01 01:48:14;;;;;;;2.17;1.67;;;4.30;99.90;;;;;;4948644;28;20114;-70
2023/05/01 01:50:44;;;;;;;1.73;1.60;;;4.30;99.90;;;;;;4961673;28;20061;-70
2023/05/01 01:53:14;;;;;;;4.93;1.88;;;4.40;99.90;;;;;;4949011;28;20063;-65
2023/05/01 01:55:43;;;;;;;3.10;1.65;;;4.50;99.90;;;;;;4959729;28;20051;-63
2023/05/01 01:58:12;;;;;;;1.58;1.48;;;4.50;99.90;;;;;;4966915;28;20089;-67
2023/05/01 02:00:41;;;;;;;4.03;2.05;;;4.50;99.90;;;;;;4953248;28;20054;-63
2023/05/01 02:03:09;;;;;;;3.13;1.75;;;4.50;99.90;;;;;;4953917;28;20142;-66
2023/05/01 02:05:39;;;;;;;3.53;1.70;;;4.40;99.90;;;;;;4946352;28;20480;-63
2023/05/01 02:08:07;;;;;;;1.92;1.60;;;4.40;99.90;;;;;;4953407;28;20134;-63
2023/05/01 02:10:35;;;;;;;4.85;2.13;;;4.40;99.90;;;;;;4953848;28;20086;-65
2023/05/01 02:13:04;;;;;;;3.10;1.85;;;4.40;99.90;;;;;;4952144;28;20061;-65
2023/05/01 02:15:32;;;;;;;2.47;1.17;;;4.50;99.90;;;;;;4963095;28;20051;-62
2023/05/01 02:18:03;;;;;;;2.40;1.33;;;4.40;99.90;;;;;;4948064;28;20137;-66
2023/05/01 02:20:32;;;;;;;5.55;1.95;;;4.50;99.90;;;;;;4935855;28;20048;-62
2023/05/01 02:22:59;;;;;;;2.00;1.90;;;4.50;99.90;;;;;;4973474;28;20055;-65
2023/05/01 02:25:30;;;;;;;4.18;1.33;;;4.50;99.90;;;;;;4956568;28;20465;-64
2023/05/01 02:28:02;;;;;;;6.45;1.63;;;4.50;99.90;;;;;;4947876;28;20181;-64
2023/05/01 02:30:29;;;;;;;6.03;2.22;;;4.50;99.90;;;;;;4961507;28;20126;-69
2023/05/01 02:32:56;;;;;;;3.15;1.80;;;4.50;99.90;;;;;;4941800;28;20058;-69
2023/05/01 02:35:23;;;;;;;2.63;1.90;;;4.50;99.90;;;;;;4951194;28;20079;-65
2023/05/01 02:37:50;;;;;;;3.63;2.17;;;4.50;99.90;;;;;;4923036;29;20051;-65
2023/05/01 02:40:17;;;;;;;1.90;1.40;;;4.50;99.90;;;;;;4941662;28;20100;-65
2023/05/01 02:42:47;;;;;;;7.32;1.58;;;4.40;99.90;;;;;;4920654;29;20127;-64
2023/05/01 02:45:22;;;;;;;5.28;1.92;;;4.30;99.90;;;;;;4953200;28;20047;-63
2023/05/01 02:47:51;;;;;;;3.85;2.17;;;4.30;99.90;;;;;;4948056;28;20461;-65
2023/05/01 02:50:20;;;;;;;5.10;2.38;;;4.20;99.90;;;;;;4941483;28;20051;-70
2023/05/01 02:52:48;;;;;;;3.92;1.98;;;4.10;99.90;;;;;;4945551;28;20051;-63
2023/05/01 02:55:34;;;;;;;5.55;2.25;;;4.10;99.90;;;;;;4946937;28;20051;-63
2023/05/01 02:58:01;;;;;;;4.53;1.77;;;4.00;99.90;;;;;;4961107;28;20062;-77
2023/05/01 03:00:28;;;;;;;1.63;1.48;;;3.90;99.90;;;;;;4957567;28;20054;-63
2023/05/01 03:02:55;;;;;;;2.67;1.67;;;3.80;99.90;;;;;;4949014;28;20478;-68
2023/05/01 03:05:22;;;;;;;2.30;2.10;;;3.80;99.90;;;;;;4949523;28;20039;-67
2023/05/01 03:07:50;;;;;;;2.85;2.38;;;3.70;99.90;;;;;;4948508;28;20664;-62
2023/05/01 03:10:17;;;;;;;2.58;2.38;;;3.70;99.90;;;;;;4948473;28;20074;-70
2023/05/01 03:12:43;;;;;;;3.30;1.95;;;3.70;99.90;;;;;;4928961;29;20187;-63
2023/05/01 03:15:11;;;;;;;3.75;1.98;;;3.70;99.90;;;;;;4949139;28;20495;-67
2023/05/01 03:17:38;;;;;;;3.38;1.73;;;3.60;99.90;;;;;;4966222;28;20147;-66
2023/05/01 03:20:08;;;;;;;2.47;1.73;;;3.70;99.90;;;;;;4965144;28;20537;-64
2023/05/01 03:22:35;;;;;;;2.15;1.63;;;3.60;99.90;;;;;;4950019;28;20054;-63
2023/05/01 03:25:03;;;;;;;3.63;2.03;;;3.60;99.90;;;;;;4951398;28;20043;-67
2023/05/01 03:27:31;;;;;;;4.10;2.05;;;3.60;99.90;;;;;;4949409;28;20059;-67
2023/05/01 03:29:58;;;;;;;4.13;2.15;;;3.60;99.90;;;;;;4949219;28;20055;-64
2023/05/01 03:32:27;;;;;;;4.85;2.45;;;3.60;99.90;;;;;;4938245;28;20130;-64
2023/05/01 03:34:55;;;;;;;4.03;2.33;;;3.60;99.90;;;;;;4965961;28;20047;-64
2023/05/01 03:37:22;;;;;;;2.53;2.28;;;3.70;99.90;;;;;;4964955;28;20074;-70
2023/05/01 03:39:50;;;;;;;2.83;1.90;;;3.80;99.90;;;;;;4948069;28;20056;-63
2023/05/01 03:42:36;;;;;;;3.17;1.90;;;3.80;99.90;;;;;;4959179;28;20154;-68
2023/05/01 03:45:10;;;;;;;7.97;2.42;;;3.80;99.90;;;;;;4960272;28;20043;-63
2023/05/01 03:47:37;;;;;;;7.47;2.80;;;3.90;99.90;;;;;;4962885;28;20063;-63
2023/05/01 03:50:05;;;;;;;9.52;2.63;;;3.90;99.90;;;;;;4953129;28;20579;-63
2023/05/01 03:52:33;;;;;;;5.05;1.77;;;3.90;99.90;;;;;;4967896;28;20063;-65
2023/05/01 03:55:00;;;;;;;3.80;2.17;;;4.00;99.90;;;;;;4950106;28;20051;-63
2023/05/01 03:57:39;;;;;;;11.05;2.33;;;4.00;99.90;;;;;;4946442;28;20497;-61
2023/05/01 04:00:07;;;;;;;6.65;1.95;;;4.10;99.90;;;;;;4944968;28;20106;-62
2023/05/01 04:02:41;;;;;;;4.47;1.88;;;4.20;99.90;;;;;;4944980;28;20047;-61
2023/05/01 04:05:12;;;;;;;5.07;2.38;;;4.20;99.90;;;;;;4946362;28;20051;-61
2023/05/01 04:07:42;;;;;;;5.50;3.13;;;4.20;99.90;;;;;;4949125;28;20051;-61
2023/05/01 04:10:09;;;;;;;8.38;2.42;;;4.20;99.90;;;;;;4961730;28;20051;-64
2023/05/01 04:12:41;;;;;;;6.57;2.42;;;4.20;99.90;;;;;;4961983;28;20066;-66
2023/05/01 04:15:09;;;;;;;3.53;2.38;;;4.20;99.90;;;;;;4948706;28;20047;-61
2023/05/01 04:17:36;;;;;;;4.22;2.17;;;4.30;99.90;;;;;;4960868;28;20111;-63
2023/05/01 04:20:05;;;;;;;3.58;1.98;;;4.30;99.90;;;;;;4948413;28;20493;-63
2023/05/01 04:22:32;;;;;;;5.57;2.55;;;4.30;99.90;;;;;;4949847;28;20358;-61
2023/05/01 04:24:59;;;;;;;4.82;2.40;;;4.30;99.90;;;;;;4944756;28;20110;-63
2023/05/01 04:27:26;;;;;;;7.35;3.15;;;4.30;99.90;;;;;;4963787;28;20800;-63
2023/05/01 04:29:53;;;;;;;5.07;2.95;;;4.40;99.90;;;;;;4956893;28;20130;-63
2023/05/01 04:32:22;;;;;;;6.45;2.40;;;4.40;99.90;;;;;;4962524;28;20058;-69
2023/05/01 04:34:49;;;;;;;6.50;2.75;;;4.40;99.90;;;;;;4958419;28;20040;-64
2023/05/01 04:37:17;;;;;;;19.25;5.32;;;4.50;99.90;;;;;;4956046;28;20047;-63
2023/05/01 04:39:44;;;;;;;7.43;3.15;;;4.60;99.90;;;;;;4963516;28;20066;-66
2023/05/01 04:42:11;;;;;;;3.97;3.00;;;4.60;99.90;;;;;;4948170;28;20576;-63
2023/05/01 04:44:39;;;;;;;8.60;3.58;;;4.70;99.90;;;;;;4956967;28;20089;-66
2023/05/01 04:47:06;;;;;;;7.15;2.70;;;4.80;99.90;;;;;;4947846;28;20130;-67
2023/05/01 04:49:34;;;;;;;11.40;3.03;;;4.80;99.90;;;;;;4959789;28;20105;-63
2023/05/01 04:52:01;;;;;;;7.15;3.05;;;4.90;99.90;;;;;;4950427;28;20059;-69
2023/05/01 04:54:38;;;;;;;7.07;4.05;;;4.90;99.90;;;;;;4943050;28;20054;-62
2023/05/01 04:57:06;;;;;;;6.75;3.22;;;5.00;99.90;;;;;;4945269;28;20524;-66
2023/05/01 04:59:32;;;;;;;4.68;3.10;;;5.10;99.90;;;;;;4946594;28;20067;-67
2023/05/01 05:01:59;;;;;;;7.45;3.05;;;5.20;99.90;;;;;;4943071;28;20046;-63
2023/05/01 05:04:26;;;;;;;10.77;3.10;;;5.20;99.90;;;;;;4930907;28;20060;-72
2023/05/01 05:06:54;;;;;;;6.00;3.05;;;5.20;99.90;;;;;;4936634;28;20054;-63
2023/05/01 05:09:29;;;;;;;10.20;3.53;;;5.20;99.90;;;;;;4940155;29;20523;-76
2023/05/01 05:11:56;;;;;;;4.60;4.10;;;5.30;99.90;;;;;;4940663;28;20050;-66
2023/05/01 05:14:22;;;;;;;4.57;3.28;;;5.30;99.90;;;;;;4961458;28;20363;-66
2023/05/01 05:16:50;;;;;;;5.68;3.33;;;5.30;99.90;;;;;;4956888;28;20094;-62
2023/05/01 05:19:17;;;;;;;13.25;4.45;;;5.40;99.90;;;;;;4937050;28;20051;-63
2023/05/01 05:21:44;;;;;;;9.82;6.45;;;5.40;99.90;;;;;;4959306;28;20465;-65
2023/05/01 05:24:11;;;;;;;10.30;3.55;;;5.50;99.90;;;;;;4939520;28;20063;-63
2023/05/01 05:26:38;;;;;;;8.20;3.67;;;5.60;99.90;;;;;;4947719;28;20078;-63
2023/05/01 05:29:06;;;;;;;8.20;3.40;;;5.70;99.90;;;;;;4957058;28;20047;-67
2023/05/01 05:31:32;;;;;;;4.00;2.88;;;5.70;99.90;;;;;;4948785;28;20121;-66
2023/05/01 05:34:00;;;;;;;7.07;3.53;;;5.80;99.90;;;;;;4942921;28;20145;-62
2023/05/01 05:36:27;;;;;;;8.55;3.35;;;5.80;99.90;;;;;;4951086;28;20418;-77
2023/05/01 05:38:54;;;;;;;3.97;2.70;;;5.80;99.90;;;;;;4956296;28;20058;-70
2023/05/01 05:41:21;;;;;;;11.73;4.25;;;5.90;99.90;;;;;;4956376;28;20059;-69
2023/05/01 05:43:53;;;;;;;7.40;2.97;;;5.90;99.90;;;;;;4962549;28;20430;-62
2023/05/01 05:46:20;;;;;;;8.88;4.10;;;6.00;99.90;;;;;;4943419;28;20047;-63
2023/05/01 05:48:47;;;;;;;8.98;3.38;;;6.00;99.90;;;;;;4946145;28;20051;-64
2023/05/01 05:51:14;;;;;;;9.45;3.28;;;6.10;99.90;;;;;;4945949;28;20047;-67
2023/05/01 05:53:41;;;;;;;8.63;3.10;;;6.20;99.90;;;;;;4959285;28;20608;-63
2023/05/01 05:56:09;;;;;;;4.75;3.20;;;6.30;99.90;;;;;;4960279;28;20066;-63
2023/05/01 05:58:37;;;;;;;6.97;4.22;;;6.30;99.90;;;;;;4952895;28;20074;-68
2023/05/01 06:01:05;;;;;;;4.10;3.42;;;6.40;99.90;;;;;;4956423;28;20043;-62
2023/05/01 06:03:35;;;;;;;9.70;5.60;;;6.50;99.90;;;;;;4958651;28;20161;-63
2023/05/01 06:06:02;;;;;;;7.85;4.25;;;6.50;99.90;;;;;;4958868;28;20429;-64
2023/05/01 06:08:29;;;;;;;11.93;3.75;;;6.50;99.90;;;;;;4925367;28;20597;-66
2023/05/01 06:10:57;;;;;;;6.30;3.20;;;6.50;99.90;;;;;;4948283;28;20493;-67
2023/05/01 06:13:25;;;;;;;5.20;3.37;;;6.60;99.90;;;;;;4945127;28;20039;-62
2023/05/01 06:15:52;;;;;;;9.68;3.20;;;6.50;99.90;;;;;;4938578;28;20297;-69
2023/05/01 06:18:20;;;;;;;5.18;4.38;;;6.50;99.90;;;;;;4959036;28;20051;-64
2023/05/01 06:20:47;;;;;;;6.00;3.42;;;6.50;99.90;;;;;;4956353;28;20498;-69
2023/05/01 06:23:14;;;;;;;11.68;4.38;;;6.60;99.90;;;;;;4943957;28;20493;-63
2023/05/01 06:26:14;;;;;;;12.63;3.75;;;6.60;99.90;;;;;;4953232;28;20561;-62
2023/05/01 06:28:41;;;;;;;14.20;4.05;;;6.60;99.90;;;;;;4954149;28;20051;-64
2023/05/01 06:31:08;;;;;;;5.97;5.38;;;6.70;99.90;;;;;;4956812;28;20066;-64
2023/05/01 06:33:40;;;;;;;5.82;2.95;;;6.60;99.90;;;;;;4958037;28;20056;-65
2023/05/01 06:36:18;;;;;;;5.22;2.85;;;6.70;99.90;;;;;;4948630;28;20067;-71
2023/05/01 06:38:47;;;;;;;8.98;3.17;;;6.70;99.90;;;;;;4933176;28;20062;-65
2023/05/01 06:41:18;;;;;;;12.50;4.13;;;6.60;99.90;;;;;;4962079;28;20452;-64
2023/05/01 06:43:44;;;;;;;8.13;3.50;;;6.40;99.90;;;;;;4945072;28;20138;-63
2023/05/01 06:46:11;;;;;;;9.30;4.20;;;6.50;99.90;;;;;;4937541;28;20094;-67
2023/05/01 06:48:39;;;;;;;6.85;3.67;;;6.50;99.90;;;;;;4966109;28;20113;-62
2023/05/01 06:51:06;;;;;;;11.77;4.85;;;6.50;99.90;;;;;;4946375;28;20176;-66
2023/05/01 06:53:33;;;;;;;7.25;3.75;;;6.50;99.90;;;;;;4955255;28;20107;-65
2023/05/01 06:56:00;;;;;;;10.35;3.20;;;6.50;99.90;;;;;;4939558;28;20047;-68
2023/05/01 06:58:27;;;;;;;5.25;3.85;;;6.50;99.90;;;;;;4939169;28;20126;-65
2023/05/01 07:00:54;;;;;;;6.22;3.60;;;6.50;99.90;;;;;;4948740;28;20055;-65
2023/05/01 07:03:21;;;;;;;9.90;3.65;;;6.50;99.90;;;;;;4954271;28;20073;-66
2023/05/01 07:05:48;;;;;;;5.55;4.15;;;6.60;99.90;;;;;;4945240;28;20398;-63
2023/05/01 07:08:15;;;;;;;7.32;3.75;;;6.50;99.90;;;;;;4939516;28;20509;-63
2023/05/01 07:10:42;;;;;;;7.32;3.40;;;6.50;99.90;;;;;;4955204;28;20051;-62
2023/05/01 07:13:09;;;;;;;8.75;4.38;;;6.60;99.90;;;;;;4949036;28;20051;-65
2023/05/01 07:15:36;;;;;;;12.30;3.85;;;6.60;99.90;;;;;;4947061;28;20510;-65
2023/05/01 07:18:06;;;;;;;8.27;3.78;;;6.60;99.90;;;;;;4944046;28;20058;-64
2023/05/01 07:20:34;;;;;;;9.48;3.78;;;6.70;99.90;;;;;;4947123;28;20051;-64
2023/05/01 07:23:00;;;;;;;7.45;5.32;;;6.60;99.90;;;;;;4947309;28;20054;-66
2023/05/01 07:25:28;;;;;;;9.55;4.80;;;6.70;99.90;;;;;;4938807;28;20054;-63
2023/05/01 07:27:55;;;;;;;9.18;3.67;;;6.80;99.90;;;;;;4943927;28;20060;-64
2023/05/01 07:30:22;;;;;;;12.98;4.30;;;6.80;99.90;;;;;;4941236;28;20458;-76
2023/05/01 07:32:49;;;;;;;10.13;5.88;;;6.80;99.90;;;;;;4942000;28;20051;-62
2023/05/01 07:35:16;;;;;;;10.80;4.40;;;6.90;99.90;;;;;;4941932;28;20111;-67
2023/05/01 07:37:43;;;;;;;10.75;5.20;;;6.90;99.90;;;;;;4942604;28;20159;-64
2023/05/01 07:40:10;;;;;;;8.18;4.22;;;7.00;99.90;;;;;;4946619;28;20055;-63
2023/05/01 07:42:37;;;;;;;7.25;3.92;;;7.10;99.90;;;;;;4924504;28;20058;-63
2023/05/01 07:45:04;;;;;;;9.95;4.00;;;7.10;99.90;;;;;;4942093;28;20073;-69
2023/05/01 07:47:31;;;;;;;9.20;3.65;;;7.10;99.90;;;;;;4942222;28;20064;-63
2023/05/01 07:49:59;;;;;;;6.18;3.75;;;7.30;99.90;;;;;;4943626;28;20504;-66
2023/05/01 07:52:26;;;;;;;14.68;4.30;;;7.10;99.90;;;;;;4944439;28;20639;-65
2023/05/01 07:54:53;;;;;;;8.63;4.25;;;7.10;99.90;;;;;;4937794;28;20058;-66
2023/05/01 07:57:22;;;;;;;18.45;4.47;;;7.00;99.90;;;;;;4930136;29;20082;-67
2023/05/01 07:59:55;;;;;;;9.70;4.70;;;7.10;99.90;;;;;;4932912;28;20138;-63
2023/05/01 08:02:22;;;;;;;5.40;4.15;;;7.00;99.90;;;;;;4928294;28;20078;-64
2023/05/01 08:04:49;;;;;;;5.97;3.78;;;7.00;99.90;;;;;;4942031;28;20040;-65
2023/05/01 08:07:16;;;;;;;8.07;3.72;;;7.10;99.90;;;;;;4939194;28;20069;-65
2023/05/01 08:09:45;;;;;;;6.60;4.13;;;7.10;99.90;;;;;;4943957;28;20054;-63
2023/05/01 08:12:12;;;;;;;9.93;4.22;;;7.10;99.90;;;;;;4946331;28;20138;-65
2023/05/01 08:14:39;;;;;;;7.68;4.40;;;7.30;99.90;;;;;;4949109;28;20055;-62
2023/05/01 08:17:05;;;;;;;5.30;3.13;;;7.40;99.90;;;;;;4940793;28;20751;-63
2023/05/01 08:19:33;;;;;;;8.13;3.95;;;7.30;99.90;;;;;;4948038;28;20071;-65
2023/05/01 08:22:00;;;;;;;9.65;4.18;;;7.40;99.90;;;;;;4940625;28;20052;-63
2023/05/01 08:24:27;;;;;;;13.02;3.60;;;7.30;99.90;;;;;;4937749;28;20107;-64
2023/05/01 08:26:54;;;;;;;13.05;4.22;;;7.40;99.90;;;;;;4945325;28;20056;-66
2023/05/01 08:29:20;;;;;;;8.13;3.70;;;7.50;99.90;;;;;;4942708;28;20058;-69
2023/05/01 08:31:47;;;;;;;7.15;3.80;;;7.50;99.90;;;;;;4939782;28;20090;-65
2023/05/01 08:34:16;;;;;;;7.47;3.78;;;7.50;99.90;;;;;;4943217;28;20397;-63
2023/05/01 08:36:42;;;;;;;8.80;3.33;;;7.50;99.90;;;;;;4944209;28;20048;-63
2023/05/01 08:39:09;;;;;;;10.48;3.33;;;7.60;99.90;;;;;;4935374;28;20055;-69
2023/05/01 08:41:37;;;;;;;10.73;3.42;;;7.70;99.90;;;;;;4945758;28;20051;-68
2023/05/01 08:44:07;;;;;;;10.07;2.72;;;7.60;99.90;;;;;;4945927;28;20090;-64
2023/05/01 08:46:49;;;;;;;4.95;3.10;;;7.80;99.90;;;;;;4943467;28;20411;-62
2023/05/01 08:49:18;;;;;;;21.48;4.20;;;8.10;99.90;;;;;;4930585;28;20474;-63
2023/05/01 08:51:47;;;;;;;8.15;2.83;;;8.10;99.90;;;;;;4944154;28;20785;-69
2023/05/01 08:54:15;;;;;;;14.27;3.50;;;8.20;99.90;;;;;;4926375;28;20056;-68
2023/05/01 08:56:43;;;;;;;10.43;6.13;;;8.10;99.90;;;;;;4921134;28;20107;-63
2023/05/01 08:59:13;;;;;;;6.03;2.88;;;8.00;99.90;;;;;;4933245;28;20165;-62
2023/05/01 09:01:41;;;;;;;5.97;3.15;;;7.90;99.90;;;;;;4946594;28;20047;-62
2023/05/01 09:04:10;;;;;;;7.55;2.72;;;7.70;99.90;;;;;;4945993;28;20146;-67
2023/05/01 09:06:38;;;;;;;6.18;3.92;;;7.70;99.90;;;;;;4938137;28;20166;-70
2023/05/01 09:09:05;;;;;;;4.30;2.38;;;7.70;99.90;;;;;;4929356;28;20496;-68
2023/05/01 09:11:32;;;;;;;4.35;3.13;;;7.60;99.90;;;;;;4941337;28;20142;-62
2023/05/01 09:14:00;;;;;;;3.72;2.05;;;7.50;99.90;;;;;;4941328;28;20055;-72
2023/05/01 09:16:28;;;;;;;4.50;2.60;;;7.50;99.90;;;;;;4945226;28;20186;-66
2023/05/01 09:18:56;;;;;;;6.53;2.28;;;7.30;99.90;;;;;;4942250;28;20043;-63
2023/05/01 09:21:24;;;;;;;7.30;2.85;;;7.30;99.90;;;;;;4937521;29;20051;-75
2023/05/01 09:23:52;;;;;;;4.50;2.90;;;7.30;99.90;;;;;;4934611;28;20522;-63
2023/05/01 09:26:20;;;;;;;4.80;2.17;;;7.30;99.90;;;;;;4923367;29;20055;-71
2023/05/01 09:28:47;;;;;;;6.03;2.63;;;7.30;99.90;;;;;;4930004;28;20490;-68
2023/05/01 09:31:21;;;;;;;7.53;2.88;;;7.40;99.90;;;;;;4934381;29;20062;-66
2023/05/01 09:33:56;;;;;;;6.78;3.42;;;7.40;99.90;;;;;;4935767;28;20111;-63
2023/05/01 09:36:31;;;;;;;6.60;4.38;;;7.30;99.90;;;;;;4945371;28;20051;-72
2023/05/01 09:38:59;;;;;;;5.03;3.47;;;7.30;99.90;;;;;;4926427;29;20067;-63
2023/05/01 09:41:26;;;;;;;7.03;4.03;;;7.50;99.90;;;;;;4922702;28;20131;-65
2023/05/01 09:43:55;;;;;;;4.50;3.17;;;7.50;99.90;;;;;;4928114;29;20061;-63
2023/05/01 09:46:23;;;;;;;7.28;3.40;;;7.60;99.90;;;;;;4927368;29;20067;-65
2023/05/01 09:48:57;;;;;;;4.38;3.47;;;7.80;99.90;;;;;;4928707;28;20047;-63
2023/05/01 09:51:25;;;;;;;7.28;4.07;;;8.00;99.90;;;;;;4938946;28;20054;-64
2023/05/01 09:53:55;;;;;;;8.73;4.93;;;8.20;99.90;;;;;;4943030;28;20082;-63
2023/05/01 09:56:24;;;;;;;5.38;4.88;;;8.30;99.90;;;;;;4944597;28;20073;-67
2023/05/01 09:58:52;;;;;;;5.55;4.55;;;8.50;99.90;;;;;;4941786;28;20055;-63
2023/05/01 10:01:41;;;;;;;4.10;3.65;;;8.70;99.90;;;;;;4939359;28;20043;-77
2023/05/01 10:04:08;;;;;;;6.30;5.15;;;8.80;99.90;;;;;;4942752;28;20142;-64
2023/05/01 10:06:36;;;;;;;6.00;4.88;;;9.00;99.90;;;;;;4939864;28;20055;-73
2023/05/01 10:09:06;;;;;;;7.10;4.53;;;9.20;99.90;;;;;;4939569;28;20469;-67
2023/05/01 10:11:54;;;;;;;11.18;4.85;;;9.40;99.90;;;;;;4940231;28;20597;-64
2023/05/01 10:14:27;;;;;;;9.80;5.43;;;9.40;99.90;;;;;;4937144;28;20070;-68
2023/05/01 10:16:55;;;;;;;11.80;3.83;;;9.40;99.90;;;;;;4939357;28;20059;-63
2023/05/01 10:19:22;;;;;;;7.70;4.38;;;9.40;99.90;;;;;;4942125;28;20466;-68
2023/05/01 10:21:49;;;;;;;5.88;4.45;;;9.40;99.90;;;;;;4951754;28;20062;-65
2023/05/01 10:24:17;;;;;;;4.43;3.80;;;9.40;99.90;;;;;;4944165;28;20050;-63
2023/05/01 10:26:47;;;;;;;6.28;4.10;;;9.50;99.90;;;;;;4942962;28;20055;-66
2023/05/01 10:29:15;;;;;;;5.85;4.47;;;9.60;99.90;;;;;;4945083;28;20134;-63
2023/05/01 10:31:42;;;;;;;7.50;4.07;;;9.80;99.90;;;;;;4944575;28;20175;-66
2023/05/01 10:34:15;;;;;;;12.60;4.00;;;10.00;99.90;;;;;;4947050;28;20043;-63
2023/05/01 10:37:03;;;;;;;6.43;3.97;;;10.20;99.90;;;;;;4948253;28;20047;-63
2023/05/01 10:39:35;;;;;;;7.75;4.22;;;10.30;99.90;;;;;;4951397;28;20141;-62
2023/05/01 10:42:15;;;;;;;15.95;5.45;;;10.50;99.90;;;;;;4947094;28;20465;-67
2023/05/01 10:44:42;;;;;;;10.32;5.22;;;10.40;99.90;;;;;;4943041;28;20059;-67
2023/05/01 10:47:34;;;;;;;9.60;4.20;;;10.50;99.90;;;;;;4940722;28;20058;-67
2023/05/01 10:50:09;;;;;;;10.73;5.05;;;10.50;99.90;;;;;;4943344;28;20172;-66
2023/05/01 10:53:10;;;;;;;6.30;3.83;;;10.50;99.90;;;;;;4934128;28;20113;-67
2023/05/01 10:55:42;;;;;;;7.03;3.80;;;10.60;99.90;;;;;;4952115;28;20217;-63
2023/05/01 10:58:13;;;;;;;5.88;4.05;;;10.80;99.90;;;;;;4947318;28;20051;-65
2023/05/01 11:00:41;;;;;;;4.95;4.32;;;10.70;99.90;;;;;;4924551;28;20040;-64
2023/05/01 11:03:23;;;;;;;8.45;5.10;;;10.70;99.90;;;;;;4938040;28;20070;-65
2023/05/01 11:05:59;;;;;;;6.45;5.22;;;10.60;99.90;;;;;;4947969;28;20737;-66
2023/05/01 11:08:32;;;;;;;7.25;3.85;;;10.60;99.90;;;;;;4947733;28;20723;-67
2023/05/01 11:11:25;;;;;;;6.22;4.03;;;10.90;99.90;;;;;;4940178;28;20114;-72
2023/05/01 11:14:07;;;;;;;7.28;3.80;;;10.70;99.90;;;;;;4941255;28;20082;-68
2023/05/01 11:16:40;;;;;;;7.50;4.05;;;10.70;99.90;;;;;;4950678;28;20055;-62
2023/05/01 11:19:08;;;;;;;8.18;3.25;;;10.80;99.90;;;;;;4943610;28;20605;-69
2023/05/01 11:21:39;;;;;;;7.47;4.57;;;10.70;99.90;;;;;;4945925;28;20145;-67
2023/05/01 11:24:06;;;;;;;15.13;5.07;;;10.70;99.90;;;;;;4943435;28;20051;-65
2023/05/01 11:26:41;;;;;;;6.90;3.75;;;10.70;99.90;;;;;;4941796;28;20529;-63
2023/05/01 11:29:09;;;;;;;10.55;5.28;;;10.80;99.90;;;;;;4945412;28;20169;-63
2023/05/01 11:31:37;;;;;;;8.43;4.07;;;10.90;99.90;;;;;;4947870;28;20071;-69
2023/05/01 11:34:07;;;;;;;9.63;4.30;;;11.10;99.90;;;;;;4947609;28;20436;-64
2023/05/01 11:36:50;;;;;;;25.70;6.63;;;11.30;99.90;;;;;;4926800;28;20091;-65
2023/05/01 11:39:18;;;;;;;7.95;3.50;;;11.50;99.90;;;;;;4943345;28;20446;-65
2023/05/01 11:41:46;;;;;;;4.88;3.90;;;11.50;99.90;;;;;;4950311;28;20073;-65
2023/05/01 11:44:17;;;;;;;7.97;4.35;;;11.50;99.90;;;;;;4942563;28;20052;-72
2023/05/01 11:46:44;;;;;;;9.23;4.65;;;11.20;99.90;;;;;;4947697;28;20085;-69
2023/05/01 11:49:11;;;;;;;5.53;4.15;;;11.20;99.90;;;;;;4952309;28;20424;-65
2023/05/01 11:51:38;;;;;;;9.82;3.97;;;11.30;99.90;;;;;;4952116;28;20047;-71
2023/05/01 11:54:06;;;;;;;8.98;5.80;;;11.20;99.90;;;;;;4942577;28;20070;-66
2023/05/01 11:56:35;;;;;;;8.25;5.40;;;11.40;99.90;;;;;;4939440;28;20149;-62
2023/05/01 11:59:10;;;;;;;9.55;5.25;;;11.30;99.90;;;;;;4949049;28;20091;-72
2023/05/01 12:01:43;;;;;;;8.57;5.47;;;11.20;99.90;;;;;;4943690;28;20457;-65
2023/05/01 12:04:11;;;;;;;7.25;5.55;;;11.00;99.90;;;;;;4944521;28;20103;-68
2023/05/01 12:06:42;;;;;;;11.25;5.97;;;10.80;99.90;;;;;;4940639;28;20134;-65
2023/05/01 12:09:14;;;;;;;7.93;5.38;;;10.60;99.90;;;;;;4944448;28;20118;-62
2023/05/01 12:11:42;;;;;;;7.78;6.28;;;10.80;99.90;;;;;;4944277;28;20047;-75
2023/05/01 12:14:10;;;;;;;11.85;6.78;;;10.80;99.90;;;;;;4948432;28;20065;-63
2023/05/01 12:16:39;;;;;;;9.02;6.05;;;10.80;99.90;;;;;;4946400;28;20153;-67
2023/05/01 12:19:06;;;;;;;13.75;6.70;;;11.00;99.90;;;;;;4947934;28;20090;-69
2023/05/01 12:21:34;;;;;;;17.08;7.47;;;11.20;99.90;;;;;;4945956;28;20047;-64
2023/05/01 12:24:15;;;;;;;10.20;6.28;;;11.10;99.90;;;;;;4947582;28;20047;-69
2023/05/01 12:26:43;;;;;;;11.98;7.32;;;11.10;99.90;;;;;;4939429;28;20055;-73
2023/05/01 12:29:10;;;;;;;9.18;6.57;;;11.10;99.90;;;;;;4950429;28;20041;-71
2023/05/01 12:31:45;;;;;;;12.15;7.30;;;11.00;99.90;;;;;;4948161;28;20047;-73
2023/05/01 12:34:12;;;;;;;11.35;7.10;;;11.00;99.90;;;;;;4946412;28;20059;-64
2023/05/01 12:36:39;;;;;;;11.52;8.50;;;10.90;99.90;;;;;;4949332;28;20058;-66
2023/05/01 12:39:08;;;;;;;11.35;7.70;;;10.70;99.90;;;;;;4949699;28;20047;-63
2023/05/01 12:41:48;;;;;;;16.27;10.50;;;10.60;99.90;;;;;;4945666;28;20058;-65
2023/05/01 12:44:17;;;;;;;18.80;10.63;;;10.50;99.90;;;;;;4942169;28;20161;-66
2023/05/01 12:46:51;;;;;;;14.70;9.82;;;10.50;99.90;;;;;;4948517;28;20085;-69
2023/05/01 12:49:19;;;;;;;20.40;10.43;;;10.60;99.90;;;;;;4947056;28;20130;-65
2023/05/01 12:51:56;;;;;;;21.60;10.18;;;10.70;99.90;;;;;;4945531;28;20043;-77
2023/05/01 12:54:30;;;;;;;13.63;10.93;;;10.50;99.90;;;;;;4945360;28;20783;-63
2023/05/01 12:57:13;;;;;;;15.52;10.13;;;10.40;99.90;;;;;;4940711;28;20059;-63
2023/05/01 12:59:41;;;;;;;16.63;9.65;;;10.40;99.90;;;;;;4940020;28;20481;-66
2023/05/01 13:02:11;;;;;;;17.67;10.32;;;10.50;99.90;;;;;;4946557;28;20059;-75
2023/05/01 13:04:39;;;;;;;17.57;9.93;;;10.40;99.90;;;;;;4954115;28;20063;-66
2023/05/01 13:07:18;;;;;;;19.35;10.02;;;10.50;99.90;;;;;;4926218;28;20628;-63